Time;durP1;ratioP1;P1;durP2;ratioP2;P2;SDS_P1;SDS_P2;PMS_P1;PMS_P2;Temp;Humidity;BMP_temperature;BMP_pressure;BME280_temperature;BME280_humidity;BME280_pressure;Samples;Min_cycle;Max_cycle;Signal;HPM_P1;HPM_P2
2022/04/03 00:01:11;;;;;;;;;;;;;;;20.83;35.73;102188.78;5056532;28;19959;-81
2022/04/03 00:03:36;;;;;;;;;;;;;;;20.82;35.72;102184.41;5038194;28;19947;-81
2022/04/03 00:06:01;;;;;;;;;;;;;;;20.80;35.67;102181.94;5072210;28;20004;-87
2022/04/03 00:08:28;;;;;;;;;;;;;;;20.80;35.99;102183.84;5072108;28;20015;-81
2022/04/03 00:10:53;;;;;;;;;;;;;;;20.79;35.68;102180.28;5054841;28;19921;-81
2022/04/03 00:13:19;;;;;;;;;;;;;;;20.79;35.67;102177.53;5056294;28;19924;-81
2022/04/03 00:15:44;;;;;;;;;;;;;;;20.78;35.58;102180.56;5071651;28;19938;-81
2022/04/03 00:18:10;;;;;;;;;;;;;;;20.77;35.90;102174.25;5056116;28;19984;-82
2022/04/03 00:20:39;;;;;;;;;;;;;;;20.77;35.90;102178.91;5038243;28;19925;-81
2022/04/03 00:23:06;;;;;;;;;;;;;;;20.75;35.69;102180.00;5056073;28;19924;-81
2022/04/03 00:25:31;;;;;;;;;;;;;;;20.74;35.71;102183.84;5055937;28;20417;-82
2022/04/03 00:27:56;;;;;;;;;;;;;;;20.73;35.70;102184.94;5054536;28;19921;-81
2022/04/03 00:30:22;;;;;;;;;;;;;;;20.72;35.91;102182.50;5038059;28;19957;-82
2022/04/03 00:32:47;;;;;;;;;;;;;;;20.72;35.69;102182.50;5038072;28;20004;-82
2022/04/03 00:35:13;;;;;;;;;;;;;;;20.70;35.73;102188.25;5054904;28;20395;-81
2022/04/03 00:37:38;;;;;;;;;;;;;;;20.69;35.67;102188.53;5055499;28;19937;-81
2022/04/03 00:40:04;;;;;;;;;;;;;;;20.67;35.74;102183.31;5071764;28;20341;-80
2022/04/03 00:42:32;;;;;;;;;;;;;;;20.67;35.60;102175.06;5038131;28;19971;-81
2022/04/03 00:44:57;;;;;;;;;;;;;;;20.66;35.61;102178.94;5037673;28;20364;-81
2022/04/03 00:47:22;;;;;;;;;;;;;;;20.65;35.78;102185.50;5055638;28;19931;-81
2022/04/03 00:49:48;;;;;;;;;;;;;;;20.64;35.77;102174.81;5071689;28;19917;-81
2022/04/03 00:52:13;;;;;;;;;;;;;;;20.64;35.80;102177.56;5070908;28;19924;-82
2022/04/03 00:54:38;;;;;;;;;;;;;;;20.63;35.48;102178.66;5055493;28;20360;-82
2022/04/03 00:57:07;;;;;;;;;;;;;;;20.62;35.45;102174.25;5055237;28;19938;-81
2022/04/03 00:59:34;;;;;;;;;;;;;;;20.62;35.71;102177.00;5037436;28;19939;-81
2022/04/03 01:02:00;;;;;;;;;;;;;;;20.61;35.69;102176.16;5054959;28;19912;-81
2022/04/03 01:04:25;;;;;;;;;;;;;;;20.59;35.52;102175.63;5070632;28;19952;-82
2022/04/03 01:06:50;;;;;;;;;;;;;;;20.58;35.52;102173.97;5055075;28;19913;-81
2022/04/03 01:09:15;;;;;;;;;;;;;;;20.58;35.63;102170.41;5071416;28;19917;-81
2022/04/03 01:11:41;;;;;;;;;;;;;;;20.57;35.78;102174.28;5055373;28;19950;-81
2022/04/03 01:14:06;;;;;;;;;;;;;;;20.55;35.63;102166.28;5036663;28;19923;-81
2022/04/03 01:16:32;;;;;;;;;;;;;;;20.55;35.60;102165.47;5055072;28;19913;-81
2022/04/03 01:18:57;;;;;;;;;;;;;;;20.53;35.41;102173.94;5055457;28;19924;-81
2022/04/03 01:21:23;;;;;;;;;;;;;;;20.53;35.59;102171.19;5070338;28;19916;-81
2022/04/03 01:23:50;;;;;;;;;;;;;;;20.52;35.39;102167.63;5070321;28;20028;-81
2022/04/03 01:26:16;;;;;;;;;;;;;;;20.50;35.62;102164.34;5036853;28;19944;-81
2022/04/03 01:28:42;;;;;;;;;;;;;;;20.50;35.44;102171.75;5054814;28;19921;-81
2022/04/03 01:31:08;;;;;;;;;;;;;;;20.49;35.48;102170.13;5054695;28;19913;-82
2022/04/03 01:33:33;;;;;;;;;;;;;;;20.49;35.41;102167.38;5054724;28;20369;-81
2022/04/03 01:35:59;;;;;;;;;;;;;;;20.47;35.35;102166.81;5054871;28;19946;-81
2022/04/03 01:38:24;;;;;;;;;;;;;;;20.46;35.48;102166.00;5053397;28;20004;-81
2022/04/03 01:40:49;;;;;;;;;;;;;;;20.46;35.49;102162.41;5054443;28;19962;-81
2022/04/03 01:43:14;;;;;;;;;;;;;;;20.46;35.61;102163.25;5036555;28;20430;-81
2022/04/03 01:45:40;;;;;;;;;;;;;;;20.45;35.58;102166.28;5054770;28;19981;-81
2022/04/03 01:48:06;;;;;;;;;;;;;;;20.44;35.37;102164.63;5070472;28;19920;-81
2022/04/03 01:50:32;;;;;;;;;;;;;;;20.44;35.37;102161.91;5054355;28;19920;-80
2022/04/03 01:52:57;;;;;;;;;;;;;;;20.42;35.32;102170.38;5036854;28;20322;-85
2022/04/03 01:55:26;;;;;;;;;;;;;;;20.42;35.33;102172.31;5070221;28;20432;-80
2022/04/03 01:57:51;;;;;;;;;;;;;;;20.40;35.25;102164.34;5036464;28;19917;-80
2022/04/03 02:00:17;;;;;;;;;;;;;;;20.40;35.35;102158.03;5036967;28;19920;-80
2022/04/03 02:02:42;;;;;;;;;;;;;;;20.39;35.33;102164.63;5053990;28;20368;-81
2022/04/03 02:05:08;;;;;;;;;;;;;;;20.38;35.27;102147.31;5054154;28;19924;-81
2022/04/03 02:07:33;;;;;;;;;;;;;;;20.37;35.23;102150.38;5054544;28;19939;-80
2022/04/03 02:10:02;;;;;;;;;;;;;;;20.37;35.24;102153.09;5054179;28;20041;-86
2022/04/03 02:12:28;;;;;;;;;;;;;;;20.35;35.34;102147.88;5053886;28;19972;-81
2022/04/03 02:14:53;;;;;;;;;;;;;;;20.35;35.09;102147.06;5036212;28;19917;-81
2022/04/03 02:17:18;;;;;;;;;;;;;;;20.33;35.16;102152.81;5053983;28;19980;-80
2022/04/03 02:19:44;;;;;;;;;;;;;;;20.32;35.19;102146.50;5053990;28;20104;-80
2022/04/03 02:22:09;;;;;;;;;;;;;;;20.31;35.22;102147.63;5053713;28;19942;-80
2022/04/03 02:24:34;;;;;;;;;;;;;;;20.31;35.18;102144.06;5053922;28;19925;-80
2022/04/03 02:27:00;;;;;;;;;;;;;;;20.30;35.48;102145.94;5036190;28;20024;-87
2022/04/03 02:29:25;;;;;;;;;;;;;;;20.30;35.36;102147.88;5053630;28;20303;-82
2022/04/03 02:31:51;;;;;;;;;;;;;;;20.30;35.20;102154.19;5052916;28;20283;-81
2022/04/03 02:34:17;;;;;;;;;;;;;;;20.29;35.15;102149.00;5036000;28;19936;-81
2022/04/03 02:36:43;;;;;;;;;;;;;;;20.27;35.21;102148.44;5053464;28;20257;-81
2022/04/03 02:39:08;;;;;;;;;;;;;;;20.26;35.14;102144.88;5052358;28;20391;-82
2022/04/03 02:41:34;;;;;;;;;;;;;;;20.26;35.24;102155.84;5035423;28;19921;-80
2022/04/03 02:44:00;;;;;;;;;;;;;;;20.26;35.26;102147.63;5053718;28;20327;-81
2022/04/03 02:46:25;;;;;;;;;;;;;;;20.25;35.10;102156.94;5035801;28;19959;-80
2022/04/03 02:48:50;;;;;;;;;;;;;;;20.24;35.14;102149.81;5053478;28;20001;-80
2022/04/03 02:51:15;;;;;;;;;;;;;;;20.24;35.01;102155.28;5052379;28;19921;-80
2022/04/03 02:53:41;;;;;;;;;;;;;;;20.23;35.45;102147.31;5053752;28;19924;-80
2022/04/03 02:56:06;;;;;;;;;;;;;;;20.23;35.09;102153.63;5053256;28;20407;-81
2022/04/03 02:58:31;;;;;;;;;;;;;;;20.22;35.04;102153.91;5069183;28;19927;-80
2022/04/03 03:00:57;;;;;;;;;;;;;;;20.21;35.18;102150.34;5054197;28;19931;-80
2022/04/03 03:03:22;;;;;;;;;;;;;;;20.21;35.22;102152.25;5053788;28;19983;-81
2022/04/03 03:05:47;;;;;;;;;;;;;;;20.20;35.11;102145.94;5069142;28;20278;-81
2022/04/03 03:08:13;;;;;;;;;;;;;;;20.19;34.97;102146.25;5053770;28;19940;-80
2022/04/03 03:10:38;;;;;;;;;;;;;;;20.19;35.31;102154.47;5053504;28;20011;-81
2022/04/03 03:13:04;;;;;;;;;;;;;;;20.17;34.97;102152.00;5035451;28;20088;-83
2022/04/03 03:15:29;;;;;;;;;;;;;;;20.17;35.20;102152.00;5053456;28;19921;-80
2022/04/03 03:17:55;;;;;;;;;;;;;;;20.17;35.06;102157.47;5053400;28;19920;-80
2022/04/03 03:20:21;;;;;;;;;;;;;;;20.17;35.05;102151.16;5053724;28;19921;-80
2022/04/03 03:22:46;;;;;;;;;;;;;;;20.16;35.18;102160.47;5053954;28;19951;-80
2022/04/03 03:25:12;;;;;;;;;;;;;;;20.15;35.20;102156.91;5052992;28;19916;-80
2022/04/03 03:27:39;;;;;;;;;;;;;;;20.15;35.10;102158.84;5053405;28;20042;-80
2022/04/03 03:30:05;;;;;;;;;;;;;;;20.15;35.17;102156.09;5053308;28;20008;-85
2022/04/03 03:32:30;;;;;;;;;;;;;;;20.13;35.18;102153.63;5053514;28;19935;-81
2022/04/03 03:34:55;;;;;;;;;;;;;;;20.13;34.99;102155.53;5053366;28;19974;-80
2022/04/03 03:37:21;;;;;;;;;;;;;;;20.13;35.09;102153.63;5054362;28;20413;-80
2022/04/03 03:39:47;;;;;;;;;;;;;;;20.11;35.16;102155.84;5057173;28;19921;-80
2022/04/03 03:42:12;;;;;;;;;;;;;;;20.10;35.23;102156.91;5038747;28;19947;-80
2022/04/03 03:44:37;;;;;;;;;;;;;;;20.10;35.07;102160.47;5056776;28;20019;-80
2022/04/03 03:47:03;;;;;;;;;;;;;;;20.09;35.01;102158.03;5072093;28;20413;-80
2022/04/03 03:49:28;;;;;;;;;;;;;;;20.08;35.03;102159.94;5073025;28;20359;-80
2022/04/03 03:51:54;;;;;;;;;;;;;;;20.08;35.03;102165.44;5071923;28;19943;-80
2022/04/03 03:54:19;;;;;;;;;;;;;;;20.07;35.16;102155.53;5056620;28;19920;-80
2022/04/03 03:56:44;;;;;;;;;;;;;;;20.07;34.94;102154.72;5072098;28;20410;-81
2022/04/03 03:59:10;;;;;;;;;;;;;;;20.07;35.10;102162.94;5072009;28;20407;-81
2022/04/03 04:01:35;;;;;;;;;;;;;;;20.07;35.30;102161.03;5056536;28;20385;-80
2022/04/03 04:04:01;;;;;;;;;;;;;;;20.04;35.15;102164.31;5056396;28;20376;-80
2022/04/03 04:06:26;;;;;;;;;;;;;;;20.05;35.35;102168.69;5056243;28;19971;-80
2022/04/03 04:08:51;;;;;;;;;;;;;;;20.05;35.11;102165.13;5071883;28;19956;-80
2022/04/03 04:11:17;;;;;;;;;;;;;;;20.04;34.98;102172.56;5056212;28;20284;-80
2022/04/03 04:13:42;;;;;;;;;;;;;;;20.03;35.10;102173.66;5055820;28;20273;-80
2022/04/03 04:16:08;;;;;;;;;;;;;;;20.02;35.05;102168.44;5056630;28;19916;-84
2022/04/03 04:18:34;;;;;;;;;;;;;;;20.02;35.18;102174.75;5038386;28;19921;-80
2022/04/03 04:21:02;;;;;;;;;;;;;;;20.01;35.05;102175.03;5056137;28;19924;-80
2022/04/03 04:23:27;;;;;;;;;;;;;;;20.01;35.17;102172.28;5056082;28;19916;-80
2022/04/03 04:25:52;;;;;;;;;;;;;;;19.99;34.94;102178.03;5055949;28;19917;-80
2022/04/03 04:28:18;;;;;;;;;;;;;;;19.99;35.12;102174.47;5071386;28;19917;-80
2022/04/03 04:30:43;;;;;;;;;;;;;;;19.99;35.18;102179.94;5054537;28;20300;-80
2022/04/03 04:33:08;;;;;;;;;;;;;;;19.98;34.99;102175.53;5037946;28;20009;-86
2022/04/03 04:35:34;;;;;;;;;;;;;;;19.97;34.92;102185.69;5038409;28;19921;-81
2022/04/03 04:38:00;;;;;;;;;;;;;;;19.97;35.25;102179.41;5071894;28;19968;-80
2022/04/03 04:40:25;;;;;;;;;;;;;;;19.96;35.10;102181.31;5055113;28;19921;-80
2022/04/03 04:42:51;;;;;;;;;;;;;;;19.96;35.19;102177.72;5056279;28;19925;-81
2022/04/03 04:45:16;;;;;;;;;;;;;;;19.95;35.21;102182.41;5070927;28;19921;-80
2022/04/03 04:47:41;;;;;;;;;;;;;;;19.94;34.96;102179.94;5037688;28;20288;-82
2022/04/03 04:50:11;;;;;;;;;;;;;;;19.93;35.09;102187.31;5055009;28;20007;-81
2022/04/03 04:52:37;;;;;;;;;;;;;;;19.93;35.04;102197.47;5055401;28;19981;-80
2022/04/03 04:55:05;;;;;;;;;;;;;;;19.92;34.90;102191.16;5037452;28;20004;-81
2022/04/03 04:57:31;;;;;;;;;;;;;;;19.91;34.98;102189.53;5037689;28;19931;-82
2022/04/03 04:59:56;;;;;;;;;;;;;;;19.93;35.11;102198.28;5055926;28;20306;-80
2022/04/03 05:02:21;;;;;;;;;;;;;;;19.91;35.08;102196.91;5071084;28;19943;-80
2022/04/03 05:04:46;;;;;;;;;;;;;;;19.90;35.16;102193.34;5055186;28;20380;-81
2022/04/03 05:07:12;;;;;;;;;;;;;;;19.89;35.17;102191.72;5070690;28;20027;-85
2022/04/03 05:09:38;;;;;;;;;;;;;;;19.88;35.05;102195.53;5054813;28;19921;-80
2022/04/03 05:12:03;;;;;;;;;;;;;;;19.88;34.97;102195.53;5055377;28;20276;-82
2022/04/03 05:14:29;;;;;;;;;;;;;;;19.88;35.00;102198.28;5053428;28;20284;-80
2022/04/03 05:16:54;;;;;;;;;;;;;;;19.87;35.02;102202.13;5054944;28;20289;-81
2022/04/03 05:19:19;;;;;;;;;;;;;;;19.86;35.16;102197.75;5054660;28;19925;-80
2022/04/03 05:21:44;;;;;;;;;;;;;;;19.85;34.93;102201.56;5037247;28;20031;-81
2022/04/03 05:24:10;;;;;;;;;;;;;;;19.84;35.00;102195.25;5070235;28;19921;-81
2022/04/03 05:26:35;;;;;;;;;;;;;;;19.83;35.20;102193.63;5054301;28;19998;-80
2022/04/03 05:29:01;;;;;;;;;;;;;;;19.82;35.12;102194.72;5037694;28;19938;-80
2022/04/03 05:31:27;;;;;;;;;;;;;;;19.82;34.99;102202.94;5053342;28;20433;-80
2022/04/03 05:33:53;;;;;;;;;;;;;;;19.81;35.19;102204.03;5055145;28;20035;-81
2022/04/03 05:36:19;;;;;;;;;;;;;;;19.82;35.02;102208.41;5054604;28;20288;-80
2022/04/03 05:38:44;;;;;;;;;;;;;;;19.81;35.13;102205.97;5054660;28;19945;-80
2022/04/03 05:41:09;;;;;;;;;;;;;;;19.80;35.03;102204.28;5054969;28;19951;-80
2022/04/03 05:43:34;;;;;;;;;;;;;;;19.80;35.22;102212.53;5069570;28;19917;-80
2022/04/03 05:45:59;;;;;;;;;;;;;;;19.79;34.97;102214.44;5069749;28;20012;-80
2022/04/03 05:48:25;;;;;;;;;;;;;;;19.79;35.00;102216.38;5054402;28;20368;-80
2022/04/03 05:50:50;;;;;;;;;;;;;;;19.77;34.98;102213.06;5070207;28;20388;-80
2022/04/03 05:53:15;;;;;;;;;;;;;;;19.76;35.04;102212.25;5069784;28;19921;-84
2022/04/03 05:55:41;;;;;;;;;;;;;;;19.76;35.00;102215.00;5036692;28;19921;-80
2022/04/03 05:58:06;;;;;;;;;;;;;;;19.76;35.01;102217.72;5054711;28;19920;-79
2022/04/03 06:00:31;;;;;;;;;;;;;;;19.76;34.99;102225.13;5068867;28;19966;-79
2022/04/03 06:02:57;;;;;;;;;;;;;;;19.75;35.00;102218.00;5054478;28;19956;-80
2022/04/03 06:05:24;;;;;;;;;;;;;;;19.74;35.23;102228.13;5054043;28;19916;-81
2022/04/03 06:07:49;;;;;;;;;;;;;;;19.74;34.99;102219.09;5069635;28;19921;-80
2022/04/03 06:10:15;;;;;;;;;;;;;;;19.73;34.90;102231.97;5054116;28;19949;-80
2022/04/03 06:13:13;;;;;;;;;;;;;;;19.73;34.94;102228.38;5052630;28;19970;-80
2022/04/03 06:15:43;;;;;;;;;;;;;;;19.72;35.00;102233.06;5003565;28;19924;-81
2022/04/03 06:18:09;;;;;;;;;;;;;;;19.71;34.98;102227.84;5036051;28;19939;-80
2022/04/03 06:20:35;;;;;;;;;;;;;;;19.71;35.12;102230.59;5053878;28;20373;-80
2022/04/03 06:23:02;;;;;;;;;;;;;;;19.72;35.07;102232.25;5036001;28;19923;-81
2022/04/03 06:25:28;;;;;;;;;;;;;;;19.71;35.01;102233.34;5053753;28;19917;-81
2022/04/03 06:27:53;;;;;;;;;;;;;;;19.71;35.03;102230.59;5035912;28;20302;-81
2022/04/03 06:30:19;;;;;;;;;;;;;;;19.70;35.17;102237.97;5053823;28;20344;-85
2022/04/03 06:32:44;;;;;;;;;;;;;;;19.71;34.96;102230.59;5035790;28;19917;-80
2022/04/03 06:35:10;;;;;;;;;;;;;;;19.70;35.00;102237.97;5053789;28;19921;-81
2022/04/03 06:37:36;;;;;;;;;;;;;;;19.69;34.91;102228.13;5053871;28;19925;-80
2022/04/03 06:40:02;;;;;;;;;;;;;;;19.70;35.19;102229.75;5069284;28;19938;-81
2022/04/03 06:42:29;;;;;;;;;;;;;;;19.70;35.08;102226.19;5035531;28;20389;-80
2022/04/03 06:44:54;;;;;;;;;;;;;;;19.67;35.08;102225.63;5053584;28;20027;-81
2022/04/03 06:47:19;;;;;;;;;;;;;;;19.68;34.96;102223.75;5054148;28;20022;-80
2022/04/03 06:49:45;;;;;;;;;;;;;;;19.68;35.01;102237.44;5053736;28;20099;-80
2022/04/03 06:52:10;;;;;;;;;;;;;;;19.68;35.07;102231.97;5036465;28;20019;-80
2022/04/03 06:54:35;;;;;;;;;;;;;;;19.67;34.95;102239.34;5035899;28;20292;-80
2022/04/03 06:57:01;;;;;;;;;;;;;;;19.67;34.98;102231.13;5053613;28;20007;-80
2022/04/03 06:59:27;;;;;;;;;;;;;;;19.67;35.37;102236.59;5052162;28;19984;-80
2022/04/03 07:01:52;;;;;;;;;;;;;;;19.67;35.25;102238.53;5053545;28;19917;-81
2022/04/03 07:04:18;;;;;;;;;;;;;;;19.67;35.11;102244.00;5053793;28;19954;-80
2022/04/03 07:06:43;;;;;;;;;;;;;;;19.67;35.01;102233.03;5053152;28;19948;-82
2022/04/03 07:09:08;;;;;;;;;;;;;;;19.66;34.81;102243.16;5069353;28;20420;-80
2022/04/03 07:11:33;;;;;;;;;;;;;;;19.65;35.19;102244.25;5053747;28;20005;-80
2022/04/03 07:13:59;;;;;;;;;;;;;;;19.66;34.95;102243.16;5057026;28;19921;-81
2022/04/03 07:16:24;;;;;;;;;;;;;;;19.66;35.14;102239.59;5039315;28;20273;-86
2022/04/03 07:18:49;;;;;;;;;;;;;;;19.65;35.08;102244.25;5072612;28;19981;-79
2022/04/03 07:21:14;;;;;;;;;;;;;;;19.65;35.25;102246.16;5072729;28;19920;-80
2022/04/03 07:23:40;;;;;;;;;;;;;;;19.65;35.08;102243.41;5072772;28;19921;-79
2022/04/03 07:26:05;;;;;;;;;;;;;;;19.64;35.09;102250.81;5057142;28;20268;-79
2022/04/03 07:28:31;;;;;;;;;;;;;;;19.64;35.26;102250.81;5039086;28;19921;-79
2022/04/03 07:30:57;;;;;;;;;;;;;;;19.64;35.19;102248.06;5072441;28;19981;-79
2022/04/03 07:33:24;;;;;;;;;;;;;;;19.63;35.02;102251.91;5056659;28;20022;-80
2022/04/03 07:35:49;;;;;;;;;;;;;;;19.64;34.93;102250.00;5056906;28;19921;-80
2022/04/03 07:38:15;;;;;;;;;;;;;;;19.63;35.21;102257.41;5056754;28;19923;-80
2022/04/03 07:40:40;;;;;;;;;;;;;;;19.63;35.07;102251.91;5055631;28;19925;-79
2022/04/03 07:43:06;;;;;;;;;;;;;;;19.64;35.22;102252.72;5056391;28;20026;-80
2022/04/03 07:45:31;;;;;;;;;;;;;;;19.63;35.22;102251.06;5071989;28;20427;-79
2022/04/03 07:47:58;;;;;;;;;;;;;;;19.64;35.11;102250.00;5039078;28;20315;-79
2022/04/03 07:50:25;;;;;;;;;;;;;;;19.63;35.24;102254.66;5056654;28;19920;-80
2022/04/03 07:52:51;;;;;;;;;;;;;;;19.63;35.32;102254.66;5057014;28;19983;-79
2022/04/03 07:55:17;;;;;;;;;;;;;;;19.63;35.24;102253.81;5056250;28;19954;-79
2022/04/03 07:57:42;;;;;;;;;;;;;;;19.63;35.32;102256.53;5071835;28;20418;-80
2022/04/03 08:00:10;;;;;;;;;;;;;;;19.64;35.09;102260.97;5056772;28;19931;-81
2022/04/03 08:02:36;;;;;;;;;;;;;;;19.63;35.10;102259.28;5055111;28;20432;-79
2022/04/03 08:05:02;;;;;;;;;;;;;;;19.62;35.13;102255.72;5056177;28;20071;-80
2022/04/03 08:07:41;;;;;;;;;;;;;;;19.62;35.25;102254.91;5054939;28;19980;-85
2022/04/03 08:10:08;;;;;;;;;;;;;;;19.61;35.18;102254.09;5056595;28;20055;-81
2022/04/03 08:12:36;;;;;;;;;;;;;;;19.62;35.11;102253.00;5056240;28;19937;-79
2022/04/03 08:15:04;;;;;;;;;;;;;;;19.61;35.33;102256.84;5056195;28;19920;-80
2022/04/03 08:17:29;;;;;;;;;;;;;;;19.62;35.21;102257.66;5056680;28;20344;-85
2022/04/03 08:19:54;;;;;;;;;;;;;;;19.62;35.21;102263.13;5071534;28;19921;-80
2022/04/03 08:22:19;;;;;;;;;;;;;;;19.62;35.18;102263.94;5056580;28;20015;-82
2022/04/03 08:24:45;;;;;;;;;;;;;;;19.62;35.33;102263.94;5054850;28;19925;-82
2022/04/03 08:27:12;;;;;;;;;;;;;;;19.62;35.11;102261.22;5056223;28;19925;-79
2022/04/03 08:29:37;;;;;;;;;;;;;;;19.63;35.28;102267.50;5057035;28;20012;-89
2022/04/03 08:32:03;;;;;;;;;;;;;;;19.63;35.30;102265.63;5056506;28;19955;-83
2022/04/03 08:34:28;;;;;;;;;;;;;;;19.62;35.33;102263.94;5055863;28;19928;-80
2022/04/03 08:36:53;;;;;;;;;;;;;;;19.64;35.52;102260.97;5071252;28;19928;-81
2022/04/03 08:39:19;;;;;;;;;;;;;;;19.64;35.65;102269.19;5071151;28;20007;-82
2022/04/03 08:41:44;;;;;;;;;;;;;;;19.64;35.74;102269.19;5055664;28;19925;-81
2022/04/03 08:44:10;;;;;;;;;;;;;;;19.64;35.87;102270.00;5056190;28;19921;-82
2022/04/03 08:46:39;;;;;;;;;;;;;;;19.64;35.80;102266.44;5055711;28;19943;-82
2022/04/03 08:49:06;;;;;;;;;;;;;;;19.63;35.73;102268.38;5055583;28;19924;-81
2022/04/03 08:51:32;;;;;;;;;;;;;;;19.63;35.78;102264.78;5037597;28;19931;-83
2022/04/03 08:53:57;;;;;;;;;;;;;;;19.64;36.02;102267.25;5038027;28;19917;-82
2022/04/03 08:56:23;;;;;;;;;;;;;;;19.66;36.07;102270.56;5055490;28;19921;-81
2022/04/03 08:58:48;;;;;;;;;;;;;;;19.68;36.19;102264.84;5055337;28;19921;-80
2022/04/03 09:01:16;;;;;;;;;;;;;;;19.69;36.10;102266.50;5055666;28;19917;-80
2022/04/03 09:03:41;;;;;;;;;;;;;;;19.71;36.02;102258.84;5055257;28;19963;-80
2022/04/03 09:06:10;;;;;;;;;;;;;;;19.72;36.20;102268.69;5070626;28;19952;-80
2022/04/03 09:08:38;;;;;;;;;;;;;;;19.73;36.21;102262.13;5037376;28;19996;-84
2022/04/03 09:11:07;;;;;;;;;;;;;;;19.73;36.13;102266.78;5054997;28;20435;-82
2022/04/03 09:13:33;;;;;;;;;;;;;;;19.74;36.33;102265.69;5070487;28;19968;-82
2022/04/03 09:15:58;;;;;;;;;;;;;;;19.75;35.99;102267.34;5070509;28;19958;-79
2022/04/03 09:18:41;;;;;;;;;;;;;;;19.75;36.34;102262.66;5037146;28;19927;-79
2022/04/03 09:21:13;;;;;;;;;;;;;;;19.76;35.99;102258.84;5055267;28;20334;-80
2022/04/03 09:23:57;;;;;;;;;;;;;;;19.77;36.07;102260.50;5054493;28;20265;-80
2022/04/03 09:26:24;;;;;;;;;;;;;;;19.77;36.08;102256.94;5054875;28;19939;-80
2022/04/03 09:28:49;;;;;;;;;;;;;;;19.77;36.01;102249.53;5053373;28;19961;-80
2022/04/03 09:31:30;;;;;;;;;;;;;;;19.77;36.13;102254.19;5054773;28;20015;-80
2022/04/03 09:33:59;;;;;;;;;;;;;;;19.78;36.13;102244.84;5054671;28;19928;-79
2022/04/03 09:36:28;;;;;;;;;;;;;;;19.78;35.97;102251.19;5036517;28;19917;-80
2022/04/03 09:39:03;;;;;;;;;;;;;;;19.78;35.93;102247.59;5036671;28;20414;-80
2022/04/03 09:41:28;;;;;;;;;;;;;;;19.77;35.85;102244.03;5054526;28;20411;-80
2022/04/03 09:43:53;;;;;;;;;;;;;;;19.78;35.78;102244.84;5053798;28;19971;-80
2022/04/03 09:46:19;;;;;;;;;;;;;;;19.78;35.83;102242.13;5036670;28;19928;-81
2022/04/03 09:48:44;;;;;;;;;;;;;;;19.78;35.81;102245.72;5054828;28;19923;-80
2022/04/03 09:51:10;;;;;;;;;;;;;;;19.78;35.85;102236.63;5054252;28;19920;-80
2022/04/03 09:53:48;;;;;;;;;;;;;;;19.79;35.99;102238.31;5054807;28;19967;-82
2022/04/03 09:56:37;;;;;;;;;;;;;;;19.78;35.88;102226.53;5036907;28;20011;-80
2022/04/03 09:59:09;;;;;;;;;;;;;;;19.78;35.67;102226.53;5054842;28;19970;-80
2022/04/03 10:01:35;;;;;;;;;;;;;;;19.78;35.61;102223.78;5037138;28;20264;-80
2022/04/03 10:04:02;;;;;;;;;;;;;;;19.78;35.67;102223.78;5054009;28;19924;-80
2022/04/03 10:06:29;;;;;;;;;;;;;;;19.79;35.73;102219.94;5054323;28;20042;-80
2022/04/03 10:08:54;;;;;;;;;;;;;;;19.79;35.41;102224.59;5054078;28;19966;-81
2022/04/03 10:11:20;;;;;;;;;;;;;;;19.79;35.36;102221.84;5036260;28;20312;-78
2022/04/03 10:13:46;;;;;;;;;;;;;;;19.78;35.40;102217.44;5035861;28;20334;-79
2022/04/03 10:16:11;;;;;;;;;;;;;;;19.78;35.44;102214.69;5035997;28;20381;-80
2022/04/03 10:18:40;;;;;;;;;;;;;;;19.78;35.23;102218.28;5035966;28;19966;-81
2022/04/03 10:21:07;;;;;;;;;;;;;;;19.77;35.21;102208.41;5053664;28;19920;-79
2022/04/03 10:23:33;;;;;;;;;;;;;;;19.77;35.21;102202.91;5053856;28;19917;-78
2022/04/03 10:25:59;;;;;;;;;;;;;;;19.66;35.61;102207.50;5053731;28;19921;-76
2022/04/03 10:28:25;;;;;;;;;;;;;;;19.60;35.56;102203.09;5069365;28;19958;-80
2022/04/03 10:31:00;;;;;;;;;;;;;;;19.56;35.78;102198.44;5052198;28;20019;-78
2022/04/03 10:33:34;;;;;;;;;;;;;;;19.53;35.74;102210.75;5035811;28;19923;-80
2022/04/03 10:36:07;;;;;;;;;;;;;;;19.54;35.69;102208.84;5036756;28;19917;-77
2022/04/03 10:38:38;;;;;;;;;;;;;;;19.50;35.73;102200.31;5054055;28;19975;-83
2022/04/03 10:41:05;;;;;;;;;;;;;;;19.50;35.93;102210.44;5035516;28;19959;-82
2022/04/03 10:43:36;;;;;;;;;;;;;;;19.50;35.77;102216.75;5036155;28;20364;-83
2022/04/03 10:46:01;;;;;;;;;;;;;;;19.51;35.69;102203.91;5035684;28;20012;-83
2022/04/03 10:48:27;;;;;;;;;;;;;;;19.51;35.80;102198.41;5055940;28;19963;-84
2022/04/03 10:51:09;;;;;;;;;;;;;;;19.52;35.74;102194.56;5056581;28;19921;-85
2022/04/03 10:53:36;;;;;;;;;;;;;;;19.51;35.80;102193.75;5039853;28;20298;-87
2022/04/03 10:56:07;;;;;;;;;;;;;;;19.50;35.79;102188.53;5072975;28;19917;-83
2022/04/03 10:58:52;;;;;;;;;;;;;;;19.49;35.95;102189.63;5040039;28;19917;-80
2022/04/03 11:01:24;;;;;;;;;;;;;;;19.48;36.19;102185.22;5057116;28;20004;-81
2022/04/03 11:04:07;;;;;;;;;;;;;;;19.48;36.11;102190.69;5039782;28;19919;-81
2022/04/03 11:06:37;;;;;;;;;;;;;;;19.49;36.20;102189.63;5057200;28;20008;-82
2022/04/03 11:09:05;;;;;;;;;;;;;;;19.50;36.05;102189.34;5056993;28;19920;-81
2022/04/03 11:11:42;;;;;;;;;;;;;;;19.51;36.25;102185.53;5039372;28;20269;-81
2022/04/03 11:14:11;;;;;;;;;;;;;;;19.52;36.01;102178.94;5039103;28;19921;-81
2022/04/03 11:16:55;;;;;;;;;;;;;;;19.54;36.24;102178.69;5056912;28;20008;-81
2022/04/03 11:19:40;;;;;;;;;;;;;;;19.54;36.30;102181.44;5039903;28;19946;-78
2022/04/03 11:22:06;;;;;;;;;;;;;;;19.55;36.18;102180.31;5057128;28;19917;-78
2022/04/03 11:24:34;;;;;;;;;;;;;;;19.55;36.09;102174.84;5056872;28;19917;-78
2022/04/03 11:26:59;;;;;;;;;;;;;;;19.56;36.13;102182.81;5038785;28;19916;-81
2022/04/03 11:29:25;;;;;;;;;;;;;;;19.57;36.13;102181.69;5055845;28;19955;-80
2022/04/03 11:31:51;;;;;;;;;;;;;;;19.61;36.15;102174.59;5072715;28;19916;-77
2022/04/03 11:34:16;;;;;;;;;;;;;;;19.64;35.95;102175.97;5057911;28;19947;-78
2022/04/03 11:36:42;;;;;;;;;;;;;;;19.65;36.06;102167.50;5057830;28;20359;-78
2022/04/03 11:39:08;;;;;;;;;;;;;;;19.67;36.02;102170.81;5057109;28;20342;-80
2022/04/03 11:41:35;;;;;;;;;;;;;;;19.70;36.17;102171.38;5056862;28;19921;-79
2022/04/03 11:44:02;;;;;;;;;;;;;;;19.71;36.02;102168.38;5056668;28;19917;-79
2022/04/03 11:46:28;;;;;;;;;;;;;;;19.73;36.08;102168.06;5056666;28;19924;-79
2022/04/03 11:48:53;;;;;;;;;;;;;;;19.74;36.03;102170.56;5056129;28;20333;-77
2022/04/03 11:51:19;;;;;;;;;;;;;;;19.76;35.86;102168.38;5055613;28;19921;-80
2022/04/03 11:53:47;;;;;;;;;;;;;;;19.77;35.96;102161.78;5056202;28;20013;-79
2022/04/03 11:56:16;;;;;;;;;;;;;;;19.77;35.93;102166.47;5056612;28;19971;-78
2022/04/03 11:58:42;;;;;;;;;;;;;;;19.77;35.93;102167.28;5054941;28;19940;-82
2022/04/03 12:01:08;;;;;;;;;;;;;;;19.78;36.13;102165.34;5056197;28;19981;-81
2022/04/03 12:03:34;;;;;;;;;;;;;;;19.79;36.13;102162.34;5056706;28;20403;-82
2022/04/03 12:06:29;;;;;;;;;;;;;;;19.79;35.99;102165.09;5056668;28;19916;-76
2022/04/03 12:08:54;;;;;;;;;;;;;;;19.79;36.04;102167.84;5025098;28;20361;-80
2022/04/03 12:11:19;;;;;;;;;;;;;;;19.78;36.01;102168.94;5056028;28;20384;-79
2022/04/03 12:13:45;;;;;;;;;;;;;;;19.78;36.07;102166.19;5038160;28;19916;-79
2022/04/03 12:16:21;;;;;;;;;;;;;;;19.80;36.20;102165.91;5056004;28;19923;-81
2022/04/03 12:18:52;;;;;;;;;;;;;;;19.80;36.19;102161.25;5056055;28;19917;-78
2022/04/03 12:21:17;;;;;;;;;;;;;;;19.83;35.97;102148.91;5055928;28;19916;-79
2022/04/03 12:24:05;;;;;;;;;;;;;;;19.84;36.17;102145.09;5038024;28;19917;-88
2022/04/03 12:26:31;;;;;;;;;;;;;;;19.88;35.88;102147.03;5055886;28;20407;-78
2022/04/03 12:28:57;;;;;;;;;;;;;;;19.91;35.96;102139.31;5037947;28;19921;-84
2022/04/03 12:31:29;;;;;;;;;;;;;;;19.93;36.12;102139.88;5070905;28;20270;-81
2022/04/03 12:34:16;;;;;;;;;;;;;;;19.95;35.84;102130.28;5055595;28;20353;-78